»·PEaware :: N780MM KGEG-KBOI

N780MM :: KGEG-KBOI

FLIGHT INFORMATION

Flight Status: Arrived
Operator: Privately registered:
United States
More flights under this callsign
Pilot: Riley H. (32429)
Aircraft: SOCATA TBM-900
(TBM9)
More flights by this aircraft type
Origin: KGEG Spokane Intl
United States
Destination: KBOI Boise Air Terminal/Gowen
United States
More flights between these airports :: More routes between these airports
Route: +GEG6 PUW BEWTE BEWTE3
File this flight plan on PilotEdge
Remarks:
Altitude:
(Current/Filed)
27,000ft
Speed:
(Current/Filed)
320kts
Departed: 13-Nov-20 10:10 PM
Arrived: 13-Nov-20 11:09 PM
Distance/Time
Traveled:
249nm/0:58
Distance/Time
To Go:
Arrived

Flight Plot

Page will automatically refresh every two minutes.

Flight plan parsing failed; only flown route is shown


Map Options




Map Legend


Flown Route
Filed Route
Departure Airport
Arrival Airport
Navaid (VOR, NDB)
Fix

Horizontal Profiles

Position Reports

Time Latitude Longitude Heading Altitude Ground
Speed
13-Nov-20 21:56 47.620414 -117.528858 180 2362ft 0kts
13-Nov-20 21:57 47.620414 -117.528858 180 2362ft 0kts
13-Nov-20 21:57 47.620414 -117.528858 180 2362ft 0kts
13-Nov-20 21:59 47.620414 -117.528858 180 2362ft 0kts
13-Nov-20 21:59 47.620414 -117.528858 180 2362ft 0kts
13-Nov-20 22:00 47.620414 -117.528858 180 2362ft 0kts
13-Nov-20 22:02 47.620414 -117.528858 180 2362ft 0kts
13-Nov-20 22:02 47.620414 -117.528858 180 2362ft 0kts
13-Nov-20 22:03 47.620414 -117.528858 180 2362ft 0kts
13-Nov-20 22:04 47.620414 -117.528858 180 2362ft 0kts
13-Nov-20 22:06 47.620653 -117.529330 8 2360ft 13kts
13-Nov-20 22:06 47.623543 -117.526367 44 2349ft 16kts
13-Nov-20 22:08 47.627346 -117.520622 44 2335ft 16kts
13-Nov-20 22:08 47.630096 -117.516960 340 2327ft 10kts
13-Nov-20 22:09 47.626221 -117.525842 224 2345ft 102kts
13-Nov-20 22:10 47.599995 -117.564689 226 3987ft 151kts
13-Nov-20 22:11 47.568618 -117.611825 226 6012ft 170kts
13-Nov-20 22:12 47.532077 -117.666873 226 8085ft 202kts
13-Nov-20 22:13 47.491730 -117.727731 226 10101ft 211kts
13-Nov-20 22:14 47.449421 -117.791606 226 11798ft 232kts
13-Nov-20 22:15 47.400087 -117.866321 226 12011ft 270kts
13-Nov-20 22:16 47.345140 -117.944198 202 12309ft 268kts
13-Nov-20 22:17 47.287077 -117.897827 133 14273ft 244kts
13-Nov-20 22:18 47.234531 -117.836812 141 16249ft 237kts
13-Nov-20 22:19 47.182108 -117.778391 143 18238ft 236kts
13-Nov-20 22:20 47.129166 -117.719864 143 20236ft 239kts
13-Nov-20 22:21 47.076268 -117.661584 143 22229ft 240kts
13-Nov-20 22:22 47.022263 -117.602253 143 24216ft 245kts
13-Nov-20 22:23 46.967501 -117.542229 143 26212ft 246kts
13-Nov-20 22:24 46.908539 -117.477787 143 26991ft 289kts
13-Nov-20 22:25 46.840958 -117.404143 143 27022ft 317kts
13-Nov-20 22:26 46.768729 -117.325711 143 27006ft 326kts
13-Nov-20 22:27 46.695710 -117.246691 143 26999ft 328kts
13-Nov-20 22:28 46.612831 -117.198403 175 26999ft 327kts
13-Nov-20 22:29 46.523352 -117.175591 169 26997ft 327kts
13-Nov-20 22:30 46.434146 -117.148726 169 27000ft 328kts
13-Nov-20 22:31 46.344678 -117.121356 168 26999ft 327kts
13-Nov-20 22:32 46.255523 -117.093979 168 27000ft 328kts
13-Nov-20 22:33 46.166339 -117.066633 168 26996ft 327kts
13-Nov-20 22:34 46.077155 -117.039378 168 26997ft 327kts
13-Nov-20 22:35 45.988093 -117.012253 168 27002ft 327kts
13-Nov-20 22:36 45.898641 -116.985108 168 27004ft 328kts
13-Nov-20 22:37 45.809208 -116.958062 168 26999ft 328kts
13-Nov-20 22:38 45.720226 -116.931239 168 26998ft 327kts
13-Nov-20 22:39 45.630998 -116.904427 168 26998ft 327kts
13-Nov-20 22:40 45.541643 -116.877660 168 26999ft 328kts
13-Nov-20 22:41 45.452374 -116.851009 168 26995ft 327kts
13-Nov-20 22:42 45.363264 -116.824499 168 26731ft 331kts
13-Nov-20 22:43 45.272853 -116.797689 168 25037ft 332kts
13-Nov-20 22:44 45.182206 -116.770882 168 23371ft 334kts
13-Nov-20 22:45 45.090964 -116.743993 168 21682ft 335kts
13-Nov-20 22:46 45.000113 -116.717310 168 19995ft 331kts
13-Nov-20 22:47 44.910773 -116.691152 168 18292ft 323kts
13-Nov-20 22:48 44.823884 -116.665779 168 16577ft 315kts
13-Nov-20 22:49 44.738991 -116.641090 168 14864ft 306kts
13-Nov-20 22:50 44.656443 -116.617148 168 13149ft 298kts
13-Nov-20 22:51 44.576282 -116.593959 168 11452ft 290kts
13-Nov-20 22:52 44.501068 -116.572246 168 11096ft 263kts
13-Nov-20 22:53 44.427643 -116.551118 168 11104ft 272kts
13-Nov-20 22:54 44.353007 -116.529692 168 11104ft 273kts
13-Nov-20 22:55 44.278355 -116.508339 168 11101ft 274kts
13-Nov-20 22:56 44.203086 -116.486828 168 11108ft 277kts
13-Nov-20 22:57 44.127353 -116.465269 168 11104ft 277kts
13-Nov-20 22:58 44.051961 -116.443873 168 11106ft 276kts
13-Nov-20 22:59 43.977793 -116.416083 154 11103ft 277kts
13-Nov-20 23:00 43.907601 -116.367798 153 9915ft 281kts
13-Nov-20 23:01 43.838399 -116.320385 154 8526ft 274kts
13-Nov-20 23:02 43.770384 -116.274299 154 7164ft 267kts
13-Nov-20 23:03 43.704732 -116.230023 154 5988ft 256kts
13-Nov-20 23:04 43.652258 -116.194500 154 5758ft 177kts
13-Nov-20 23:05 43.607538 -116.164362 154 5080ft 179kts
13-Nov-20 23:06 43.564353 -116.175503 206 4142ft 140kts
13-Nov-20 23:07 43.558969 -116.204051 295 2887ft 80kts
13-Nov-20 23:08 43.564942 -116.217452 307 2856ft 18kts
13-Nov-20 23:09 43.566751 -116.223226 293 2850ft 17kts
13-Nov-20 23:10 43.569499 -116.228138 26 2843ft 12kts
13-Nov-20 23:11 43.570689 -116.229831 271 2840ft 0kts
13-Nov-20 23:12 43.570689 -116.229831 271 2840ft 0kts

Navigation Log

Ident Type
Flight plan parsing failed, navigation log unavailable